V8BKH WBSB-RPVM
Flight info
| Callsign | V8BKH |
|---|---|
| Flight time | N/A |
| Altitude | 41000 |
| Route | REKOS W461 VSN A341 ZAM G578 ALDIN ALDIN3P |
| Aircraft | B748/H-SDE3FGHIM1M2RWXY/LB1 |
Departure
| Time | 2026-05-07 10:50 |
|---|---|
| Airport | Brunei International Airport (WBSB) |
Arrival
| Time | N/A |
|---|---|
| Airport | Mactan Cebu International Airport (RPVM) |
| Time | Latitude | Longitude | Altitude | Speed | Heading |
|---|---|---|---|---|---|
| 2026-05-07 10:42 | 4.94239 | 114.93011 | 53 ft | 0 kts | 211° |
| 2026-05-07 10:45 | 4.94238 | 114.93010 | 53 ft | 2 kts | 211° |
| 2026-05-07 10:45 | 4.94186 | 114.92973 | 49 ft | 15 kts | 218° |
| 2026-05-07 10:46 | 4.94132 | 114.92884 | 47 ft | 17 kts | 248° |
| 2026-05-07 10:46 | 4.94043 | 114.92808 | 43 ft | 17 kts | 213° |
| 2026-05-07 10:46 | 4.93942 | 114.92746 | 42 ft | 17 kts | 212° |
| 2026-05-07 10:46 | 4.93837 | 114.92681 | 40 ft | 18 kts | 213° |
| 2026-05-07 10:47 | 4.93727 | 114.92613 | 38 ft | 18 kts | 212° |
| 2026-05-07 10:47 | 4.93609 | 114.92546 | 37 ft | 19 kts | 209° |
| 2026-05-07 10:47 | 4.93496 | 114.92477 | 37 ft | 23 kts | 212° |
| 2026-05-07 10:47 | 4.93324 | 114.92369 | 37 ft | 31 kts | 208° |
| 2026-05-07 10:48 | 4.93157 | 114.92275 | 37 ft | 30 kts | 211° |
| 2026-05-07 10:48 | 4.93009 | 114.92184 | 37 ft | 19 kts | 212° |
| 2026-05-07 10:48 | 4.92951 | 114.92087 | 37 ft | 16 kts | 269° |
| 2026-05-07 10:48 | 4.93013 | 114.92020 | 37 ft | 13 kts | 350° |
| 2026-05-07 10:49 | 4.93086 | 114.92033 | 37 ft | 0 kts | 32° |
| 2026-05-07 10:49 | 4.93128 | 114.92059 | 37 ft | 32 kts | 31° |
| 2026-05-07 10:49 | 4.93625 | 114.92356 | 37 ft | 133 kts | 30° |
| 2026-05-07 10:49 | 4.94591 | 114.92937 | 347 ft | 184 kts | 30° |
| 2026-05-07 10:50 | 4.95500 | 114.93537 | 1557 ft | 145 kts | 39° |
| 2026-05-07 10:50 | 4.96124 | 114.94391 | 1983 ft | 180 kts | 69° |
| 2026-05-07 10:50 | 4.96415 | 114.95539 | 2426 ft | 192 kts | 77° |
| 2026-05-07 10:50 | 4.96714 | 114.96761 | 3061 ft | 190 kts | 73° |
| 2026-05-07 10:51 | 4.97018 | 114.97877 | 3651 ft | 190 kts | 74° |
| 2026-05-07 10:51 | 4.97349 | 114.99161 | 4101 ft | 204 kts | 74° |
| 2026-05-07 10:51 | 4.97692 | 115.00484 | 4641 ft | 210 kts | 75° |
| 2026-05-07 10:51 | 4.98035 | 115.01825 | 5133 ft | 219 kts | 75° |
| 2026-05-07 10:52 | 4.98416 | 115.03341 | 5651 ft | 230 kts | 76° |
| 2026-05-07 10:52 | 4.98803 | 115.04903 | 6324 ft | 233 kts | 76° |
| 2026-05-07 10:52 | 4.99162 | 115.06368 | 6979 ft | 234 kts | 76° |
| 2026-05-07 10:52 | 4.99522 | 115.07846 | 7576 ft | 237 kts | 76° |
| 2026-05-07 10:53 | 4.99871 | 115.09282 | 8126 ft | 240 kts | 76° |
| 2026-05-07 10:53 | 5.00257 | 115.10887 | 8703 ft | 245 kts | 76° |
| 2026-05-07 10:53 | 5.00661 | 115.12579 | 9253 ft | 251 kts | 76° |
| 2026-05-07 10:53 | 5.01075 | 115.14314 | 9755 ft | 260 kts | 76° |
| 2026-05-07 10:54 | 5.01492 | 115.16077 | 10191 ft | 270 kts | 76° |
| 2026-05-07 10:54 | 5.01940 | 115.17971 | 10537 ft | 283 kts | 76° |
| 2026-05-07 10:54 | 5.02388 | 115.19870 | 10717 ft | 302 kts | 76° |
| 2026-05-07 10:54 | 5.02881 | 115.21957 | 10820 ft | 323 kts | 76° |
| 2026-05-07 10:55 | 5.03360 | 115.23992 | 11254 ft | 328 kts | 76° |
| 2026-05-07 10:55 | 5.03862 | 115.26119 | 11797 ft | 330 kts | 76° |
| 2026-05-07 10:55 | 5.04376 | 115.28297 | 12374 ft | 331 kts | 76° |
| 2026-05-07 10:55 | 5.04914 | 115.30582 | 12934 ft | 335 kts | 76° |
| 2026-05-07 10:56 | 5.05455 | 115.32876 | 13479 ft | 337 kts | 76° |
| 2026-05-07 10:56 | 5.05966 | 115.35054 | 14023 ft | 337 kts | 76° |
| 2026-05-07 10:56 | 5.06495 | 115.37301 | 14521 ft | 339 kts | 76° |
| 2026-05-07 10:56 | 5.07038 | 115.39615 | 15012 ft | 341 kts | 76° |
| 2026-05-07 10:57 | 5.07545 | 115.41763 | 15451 ft | 343 kts | 76° |
| 2026-05-07 10:57 | 5.08022 | 115.43781 | 15854 ft | 346 kts | 76° |
| 2026-05-07 10:57 | 5.08436 | 115.45536 | 16216 ft | 347 kts | 76° |
| 2026-05-07 10:57 | 5.08886 | 115.47444 | 16612 ft | 348 kts | 76° |
| 2026-05-07 10:58 | 5.09325 | 115.49318 | 16978 ft | 350 kts | 76° |
| 2026-05-07 10:58 | 5.09886 | 115.51705 | 17486 ft | 350 kts | 76° |
| 2026-05-07 10:58 | 5.10374 | 115.53796 | 17849 ft | 353 kts | 76° |
| 2026-05-07 10:58 | 5.10947 | 115.56229 | 18259 ft | 355 kts | 76° |
| 2026-05-07 10:59 | 5.11529 | 115.58714 | 18713 ft | 356 kts | 76° |
| 2026-05-07 10:59 | 5.12045 | 115.60912 | 19083 ft | 358 kts | 76° |
| 2026-05-07 10:59 | 5.12596 | 115.63256 | 19422 ft | 361 kts | 76° |
| 2026-05-07 10:59 | 5.13178 | 115.65747 | 19821 ft | 363 kts | 76° |
| 2026-05-07 11:00 | 5.13700 | 115.67976 | 20222 ft | 372 kts | 76° |
| 2026-05-07 11:00 | 5.14295 | 115.70522 | 21078 ft | 377 kts | 76° |
| 2026-05-07 11:00 | 5.15041 | 115.73052 | 21916 ft | 381 kts | 70° |
| 2026-05-07 11:00 | 5.15898 | 115.75507 | 22730 ft | 384 kts | 71° |
| 2026-05-07 11:01 | 5.16755 | 115.78113 | 23469 ft | 391 kts | 71° |
| 2026-05-07 11:01 | 5.17613 | 115.80701 | 24256 ft | 395 kts | 71° |
| 2026-05-07 11:01 | 5.18433 | 115.83201 | 24979 ft | 399 kts | 72° |
| 2026-05-07 11:01 | 5.19243 | 115.85671 | 25582 ft | 405 kts | 72° |
| 2026-05-07 11:02 | 5.20113 | 115.88331 | 26312 ft | 409 kts | 72° |
| 2026-05-07 11:02 | 5.20980 | 115.90992 | 26933 ft | 414 kts | 72° |
| 2026-05-07 11:02 | 5.21844 | 115.93655 | 27567 ft | 418 kts | 72° |
| 2026-05-07 11:02 | 5.22745 | 115.96426 | 28184 ft | 422 kts | 72° |
| 2026-05-07 11:03 | 5.23660 | 115.99245 | 28778 ft | 426 kts | 72° |
| 2026-05-07 11:03 | 5.24581 | 116.02115 | 29345 ft | 431 kts | 72° |
| 2026-05-07 11:03 | 5.25521 | 116.04990 | 29918 ft | 435 kts | 72° |
| 2026-05-07 11:03 | 5.26412 | 116.07745 | 30444 ft | 438 kts | 72° |
| 2026-05-07 11:04 | 5.27324 | 116.10565 | 30973 ft | 441 kts | 72° |
| 2026-05-07 11:04 | 5.28155 | 116.13130 | 31435 ft | 444 kts | 72° |
| 2026-05-07 11:04 | 5.29119 | 116.16109 | 31959 ft | 446 kts | 72° |
| 2026-05-07 11:04 | 5.29987 | 116.18795 | 32448 ft | 448 kts | 72° |
| 2026-05-07 11:05 | 5.30949 | 116.21767 | 32954 ft | 451 kts | 72° |
| 2026-05-07 11:05 | 5.31935 | 116.24807 | 33408 ft | 455 kts | 72° |
| 2026-05-07 11:05 | 5.32910 | 116.27821 | 33762 ft | 461 kts | 73° |
| 2026-05-07 11:05 | 5.33922 | 116.30932 | 33958 ft | 470 kts | 73° |
| 2026-05-07 11:06 | 5.35950 | 116.37207 | 33977 ft | 468 kts | 73° |
| 2026-05-07 11:06 | 5.37920 | 116.43301 | 33960 ft | 466 kts | 73° |
| 2026-05-07 11:07 | 5.39923 | 116.49523 | 33978 ft | 467 kts | 73° |
| 2026-05-07 11:07 | 5.41924 | 116.55698 | 33999 ft | 466 kts | 73° |
| 2026-05-07 11:08 | 5.43897 | 116.61848 | 33990 ft | 473 kts | 73° |
| 2026-05-07 11:08 | 5.45806 | 116.67762 | 33947 ft | 468 kts | 73° |
| 2026-05-07 11:09 | 5.47800 | 116.73914 | 33931 ft | 470 kts | 73° |
| 2026-05-07 11:09 | 5.49811 | 116.80138 | 33903 ft | 470 kts | 73° |
| 2026-05-07 11:10 | 5.51832 | 116.86398 | 33901 ft | 469 kts | 73° |
| 2026-05-07 11:10 | 5.53834 | 116.92599 | 33888 ft | 469 kts | 73° |
| 2026-05-07 11:11 | 5.55828 | 116.98805 | 33882 ft | 469 kts | 73° |
| 2026-05-07 11:11 | 5.57850 | 117.05062 | 33887 ft | 471 kts | 73° |
| 2026-05-07 11:12 | 5.59853 | 117.11334 | 33887 ft | 471 kts | 73° |
| 2026-05-07 11:12 | 5.61844 | 117.17514 | 33895 ft | 469 kts | 73° |
| 2026-05-07 11:13 | 5.63866 | 117.23830 | 33932 ft | 471 kts | 73° |
| 2026-05-07 11:13 | 5.65884 | 117.30102 | 33945 ft | 470 kts | 73° |
| 2026-05-07 11:14 | 5.67903 | 117.36402 | 33933 ft | 468 kts | 73° |
| 2026-05-07 11:14 | 5.69915 | 117.42698 | 33916 ft | 471 kts | 73° |
| 2026-05-07 11:15 | 5.71901 | 117.49011 | 33877 ft | 469 kts | 73° |
| 2026-05-07 11:15 | 5.73883 | 117.55227 | 33853 ft | 469 kts | 73° |
| 2026-05-07 11:16 | 5.75837 | 117.61393 | 33837 ft | 468 kts | 73° |
| 2026-05-07 11:16 | 5.77705 | 117.67300 | 33838 ft | 469 kts | 73° |
| 2026-05-07 11:17 | 5.79678 | 117.73521 | 33840 ft | 469 kts | 73° |
| 2026-05-07 11:17 | 5.81647 | 117.79778 | 33829 ft | 468 kts | 73° |
| 2026-05-07 11:18 | 5.83606 | 117.85965 | 33816 ft | 468 kts | 73° |
| 2026-05-07 11:18 | 5.85576 | 117.92222 | 33810 ft | 469 kts | 73° |
| 2026-05-07 11:19 | 5.87543 | 117.98440 | 33806 ft | 469 kts | 73° |
| 2026-05-07 11:19 | 5.89514 | 118.04697 | 33808 ft | 469 kts | 73° |
| 2026-05-07 11:20 | 5.91303 | 118.10947 | 33797 ft | 466 kts | 76° |
| 2026-05-07 11:20 | 5.92954 | 118.17218 | 33805 ft | 466 kts | 76° |
| 2026-05-07 11:21 | 5.94597 | 118.23528 | 33808 ft | 467 kts | 75° |
| 2026-05-07 11:21 | 5.96254 | 118.29839 | 33806 ft | 470 kts | 75° |
| 2026-05-07 11:22 | 5.97917 | 118.36165 | 33796 ft | 467 kts | 75° |
| 2026-05-07 11:22 | 5.99565 | 118.42441 | 33800 ft | 467 kts | 75° |
| 2026-05-07 11:23 | 6.01227 | 118.48758 | 33790 ft | 467 kts | 76° |
| 2026-05-07 11:23 | 6.02868 | 118.55090 | 33785 ft | 469 kts | 76° |
| 2026-05-07 11:24 | 6.04505 | 118.61400 | 33791 ft | 467 kts | 75° |
| 2026-05-07 11:24 | 6.06142 | 118.67713 | 33796 ft | 468 kts | 75° |
| 2026-05-07 11:25 | 6.07741 | 118.73874 | 33801 ft | 467 kts | 75° |
| 2026-05-07 11:25 | 6.09386 | 118.80188 | 33803 ft | 467 kts | 75° |
| 2026-05-07 11:26 | 6.11010 | 118.86477 | 33800 ft | 467 kts | 75° |
| 2026-05-07 11:26 | 6.12652 | 118.92820 | 33807 ft | 468 kts | 75° |
| 2026-05-07 11:27 | 6.14277 | 118.99135 | 33799 ft | 466 kts | 75° |
| 2026-05-07 11:27 | 6.15915 | 119.05465 | 33800 ft | 469 kts | 75° |
| 2026-05-07 11:28 | 6.17502 | 119.11582 | 33804 ft | 470 kts | 75° |
| 2026-05-07 11:28 | 6.19135 | 119.17909 | 33804 ft | 469 kts | 75° |
| 2026-05-07 11:29 | 6.20776 | 119.24266 | 33798 ft | 467 kts | 75° |
| 2026-05-07 11:29 | 6.22399 | 119.30526 | 33800 ft | 467 kts | 75° |
| 2026-05-07 11:30 | 6.24025 | 119.36876 | 33799 ft | 467 kts | 75° |
| 2026-05-07 11:30 | 6.25646 | 119.43170 | 33805 ft | 469 kts | 75° |
| 2026-05-07 11:31 | 6.26740 | 119.47408 | 33802 ft | 469 kts | 75° |
| 2026-05-07 11:31 | 6.27277 | 119.49504 | 33801 ft | 469 kts | 75° |